sensor_id;sensor_type;location;lat;lon;timestamp;P1;durP1;ratioP1;P2;durP2;ratioP2
17175;SDS011;8703;48.996;9.594;2022-07-23T00:00:42;7.15;;;6.45;;
17175;SDS011;8703;48.996;9.594;2022-07-23T00:03:09;8.02;;;7.07;;
17175;SDS011;8703;48.996;9.594;2022-07-23T00:05:36;8.95;;;7.20;;
17175;SDS011;8703;48.996;9.594;2022-07-23T00:08:05;7.97;;;7.18;;
17175;SDS011;8703;48.996;9.594;2022-07-23T00:10:33;8.30;;;7.00;;
17175;SDS011;8703;48.996;9.594;2022-07-23T00:13:01;9.75;;;6.72;;
17175;SDS011;8703;48.996;9.594;2022-07-23T00:15:28;8.68;;;6.90;;
17175;SDS011;8703;48.996;9.594;2022-07-23T00:17:55;8.43;;;6.95;;
17175;SDS011;8703;48.996;9.594;2022-07-23T00:20:23;8.05;;;7.25;;
17175;SDS011;8703;48.996;9.594;2022-07-23T00:22:51;8.25;;;7.07;;
17175;SDS011;8703;48.996;9.594;2022-07-23T00:25:21;6.82;;;6.15;;
17175;SDS011;8703;48.996;9.594;2022-07-23T00:27:48;8.35;;;6.60;;
17175;SDS011;8703;48.996;9.594;2022-07-23T00:30:16;7.75;;;6.57;;
17175;SDS011;8703;48.996;9.594;2022-07-23T00:32:47;7.57;;;6.82;;
17175;SDS011;8703;48.996;9.594;2022-07-23T00:35:15;6.63;;;6.03;;
17175;SDS011;8703;48.996;9.594;2022-07-23T00:37:45;8.18;;;6.25;;
17175;SDS011;8703;48.996;9.594;2022-07-23T00:40:12;6.93;;;6.30;;
17175;SDS011;8703;48.996;9.594;2022-07-23T00:42:41;7.00;;;5.82;;
17175;SDS011;8703;48.996;9.594;2022-07-23T00:45:09;6.78;;;5.68;;
17175;SDS011;8703;48.996;9.594;2022-07-23T00:47:37;6.45;;;5.50;;
17175;SDS011;8703;48.996;9.594;2022-07-23T00:50:05;6.03;;;5.45;;
17175;SDS011;8703;48.996;9.594;2022-07-23T00:52:34;5.45;;;4.95;;
17175;SDS011;8703;48.996;9.594;2022-07-23T00:55:02;6.00;;;5.40;;
17175;SDS011;8703;48.996;9.594;2022-07-23T00:57:30;6.63;;;5.53;;
17175;SDS011;8703;48.996;9.594;2022-07-23T00:59:59;6.05;;;5.47;;
17175;SDS011;8703;48.996;9.594;2022-07-23T01:02:27;5.45;;;4.95;;
17175;SDS011;8703;48.996;9.594;2022-07-23T01:04:54;5.45;;;4.50;;
17175;SDS011;8703;48.996;9.594;2022-07-23T01:07:22;6.22;;;5.30;;
17175;SDS011;8703;48.996;9.594;2022-07-23T01:09:50;5.50;;;5.00;;
17175;SDS011;8703;48.996;9.594;2022-07-23T01:12:18;7.45;;;4.63;;
17175;SDS011;8703;48.996;9.594;2022-07-23T01:14:49;5.68;;;5.10;;
17175;SDS011;8703;48.996;9.594;2022-07-23T01:17:21;4.50;;;4.05;;
17175;SDS011;8703;48.996;9.594;2022-07-23T01:19:49;4.43;;;3.97;;
17175;SDS011;8703;48.996;9.594;2022-07-23T01:22:17;4.43;;;4.00;;
17175;SDS011;8703;48.996;9.594;2022-07-23T01:24:47;4.78;;;4.28;;
17175;SDS011;8703;48.996;9.594;2022-07-23T01:27:14;5.28;;;4.57;;
17175;SDS011;8703;48.996;9.594;2022-07-23T01:29:44;5.22;;;4.63;;
17175;SDS011;8703;48.996;9.594;2022-07-23T01:32:11;5.07;;;4.57;;
17175;SDS011;8703;48.996;9.594;2022-07-23T01:34:39;5.45;;;4.70;;
17175;SDS011;8703;48.996;9.594;2022-07-23T01:37:06;4.95;;;4.45;;
17175;SDS011;8703;48.996;9.594;2022-07-23T01:39:34;5.03;;;4.13;;
17175;SDS011;8703;48.996;9.594;2022-07-23T01:42:02;4.80;;;4.40;;
17175;SDS011;8703;48.996;9.594;2022-07-23T01:44:30;5.15;;;4.05;;
17175;SDS011;8703;48.996;9.594;2022-07-23T01:46:57;5.90;;;4.80;;
17175;SDS011;8703;48.996;9.594;2022-07-23T01:49:25;4.38;;;3.67;;
17175;SDS011;8703;48.996;9.594;2022-07-23T01:51:52;4.05;;;3.65;;
17175;SDS011;8703;48.996;9.594;2022-07-23T01:54:25;4.50;;;4.10;;
17175;SDS011;8703;48.996;9.594;2022-07-23T01:56:53;4.80;;;4.30;;
17175;SDS011;8703;48.996;9.594;2022-07-23T01:59:22;7.05;;;4.55;;
17175;SDS011;8703;48.996;9.594;2022-07-23T02:01:49;5.63;;;3.97;;
17175;SDS011;8703;48.996;9.594;2022-07-23T02:04:17;5.00;;;4.07;;
17175;SDS011;8703;48.996;9.594;2022-07-23T02:06:44;4.78;;;3.92;;
17175;SDS011;8703;48.996;9.594;2022-07-23T02:12:34;4.72;;;4.30;;
17175;SDS011;8703;48.996;9.594;2022-07-23T02:15:04;4.82;;;4.32;;
17175;SDS011;8703;48.996;9.594;2022-07-23T02:17:32;5.05;;;4.20;;
17175;SDS011;8703;48.996;9.594;2022-07-23T02:19:59;4.80;;;4.40;;
17175;SDS011;8703;48.996;9.594;2022-07-23T02:22:27;4.90;;;4.25;;
17175;SDS011;8703;48.996;9.594;2022-07-23T02:24:54;5.50;;;4.60;;
17175;SDS011;8703;48.996;9.594;2022-07-23T02:27:21;4.50;;;4.10;;
17175;SDS011;8703;48.996;9.594;2022-07-23T02:29:49;5.32;;;4.38;;
17175;SDS011;8703;48.996;9.594;2022-07-23T02:32:17;4.75;;;4.25;;
17175;SDS011;8703;48.996;9.594;2022-07-23T02:34:46;5.10;;;4.60;;
17175;SDS011;8703;48.996;9.594;2022-07-23T02:37:13;5.25;;;4.43;;
17175;SDS011;8703;48.996;9.594;2022-07-23T02:39:40;5.63;;;4.75;;
17175;SDS011;8703;48.996;9.594;2022-07-23T02:42:08;5.40;;;4.45;;
17175;SDS011;8703;48.996;9.594;2022-07-23T02:44:35;6.53;;;4.55;;
17175;SDS011;8703;48.996;9.594;2022-07-23T02:47:02;6.60;;;4.35;;
17175;SDS011;8703;48.996;9.594;2022-07-23T02:49:31;5.35;;;4.65;;
17175;SDS011;8703;48.996;9.594;2022-07-23T02:51:59;5.97;;;4.78;;
17175;SDS011;8703;48.996;9.594;2022-07-23T02:54:26;6.05;;;4.80;;
17175;SDS011;8703;48.996;9.594;2022-07-23T02:56:53;5.10;;;4.60;;
17175;SDS011;8703;48.996;9.594;2022-07-23T02:59:21;5.47;;;4.75;;
17175;SDS011;8703;48.996;9.594;2022-07-23T03:01:48;4.88;;;4.30;;
17175;SDS011;8703;48.996;9.594;2022-07-23T03:04:15;5.18;;;4.68;;
17175;SDS011;8703;48.996;9.594;2022-07-23T03:06:44;4.80;;;4.40;;
17175;SDS011;8703;48.996;9.594;2022-07-23T03:09:11;5.85;;;4.72;;
17175;SDS011;8703;48.996;9.594;2022-07-23T03:11:39;6.80;;;4.63;;
17175;SDS011;8703;48.996;9.594;2022-07-23T03:14:06;5.45;;;4.60;;
17175;SDS011;8703;48.996;9.594;2022-07-23T03:16:33;5.57;;;4.70;;
17175;SDS011;8703;48.996;9.594;2022-07-23T03:19:01;5.63;;;5.13;;
17175;SDS011;8703;48.996;9.594;2022-07-23T03:21:28;5.00;;;4.50;;
17175;SDS011;8703;48.996;9.594;2022-07-23T03:23:57;5.32;;;4.55;;
17175;SDS011;8703;48.996;9.594;2022-07-23T03:26:24;5.65;;;4.57;;
17175;SDS011;8703;48.996;9.594;2022-07-23T03:28:51;6.38;;;4.45;;
17175;SDS011;8703;48.996;9.594;2022-07-23T03:31:19;4.88;;;4.38;;
17175;SDS011;8703;48.996;9.594;2022-07-23T03:33:46;5.50;;;5.00;;
17175;SDS011;8703;48.996;9.594;2022-07-23T03:36:13;6.35;;;4.80;;
17175;SDS011;8703;48.996;9.594;2022-07-23T03:38:41;5.88;;;4.70;;
17175;SDS011;8703;48.996;9.594;2022-07-23T03:41:09;4.75;;;4.35;;
17175;SDS011;8703;48.996;9.594;2022-07-23T03:43:37;5.05;;;4.63;;
17175;SDS011;8703;48.996;9.594;2022-07-23T03:46:04;6.68;;;4.82;;
17175;SDS011;8703;48.996;9.594;2022-07-23T03:48:31;6.97;;;4.90;;
17175;SDS011;8703;48.996;9.594;2022-07-23T03:50:59;5.22;;;4.72;;
17175;SDS011;8703;48.996;9.594;2022-07-23T03:53:26;5.32;;;4.78;;
17175;SDS011;8703;48.996;9.594;2022-07-23T03:55:53;5.00;;;4.47;;
17175;SDS011;8703;48.996;9.594;2022-07-23T03:58:22;4.93;;;4.53;;
17175;SDS011;8703;48.996;9.594;2022-07-23T04:00:50;6.22;;;4.63;;
17175;SDS011;8703;48.996;9.594;2022-07-23T04:03:18;4.85;;;4.32;;
17175;SDS011;8703;48.996;9.594;2022-07-23T04:05:45;4.90;;;4.30;;
17175;SDS011;8703;48.996;9.594;2022-07-23T04:08:12;4.90;;;4.50;;
17175;SDS011;8703;48.996;9.594;2022-07-23T04:10:40;5.82;;;4.80;;
17175;SDS011;8703;48.996;9.594;2022-07-23T04:13:08;5.13;;;4.63;;
17175;SDS011;8703;48.996;9.594;2022-07-23T04:15:36;5.43;;;4.85;;
17175;SDS011;8703;48.996;9.594;2022-07-23T04:18:04;6.05;;;4.68;;
17175;SDS011;8703;48.996;9.594;2022-07-23T04:20:31;4.43;;;4.03;;
17175;SDS011;8703;48.996;9.594;2022-07-23T04:22:58;7.05;;;4.78;;
17175;SDS011;8703;48.996;9.594;2022-07-23T04:25:26;6.72;;;4.70;;
17175;SDS011;8703;48.996;9.594;2022-07-23T04:27:53;4.97;;;4.35;;
17175;SDS011;8703;48.996;9.594;2022-07-23T04:30:20;6.07;;;4.60;;
17175;SDS011;8703;48.996;9.594;2022-07-23T04:32:49;6.13;;;4.65;;
17175;SDS011;8703;48.996;9.594;2022-07-23T04:35:16;5.20;;;4.70;;
17175;SDS011;8703;48.996;9.594;2022-07-23T04:37:44;5.00;;;4.50;;
17175;SDS011;8703;48.996;9.594;2022-07-23T04:40:12;5.10;;;4.53;;
17175;SDS011;8703;48.996;9.594;2022-07-23T04:42:39;5.10;;;4.65;;
17175;SDS011;8703;48.996;9.594;2022-07-23T04:45:07;5.45;;;4.93;;
17175;SDS011;8703;48.996;9.594;2022-07-23T04:47:35;5.20;;;4.70;;
17175;SDS011;8703;48.996;9.594;2022-07-23T04:50:04;6.88;;;4.80;;
17175;SDS011;8703;48.996;9.594;2022-07-23T04:52:31;5.25;;;4.75;;
17175;SDS011;8703;48.996;9.594;2022-07-23T04:54:59;6.25;;;5.10;;
17175;SDS011;8703;48.996;9.594;2022-07-23T04:57:26;5.20;;;4.70;;
17175;SDS011;8703;48.996;9.594;2022-07-23T04:59:54;4.80;;;4.40;;
17175;SDS011;8703;48.996;9.594;2022-07-23T05:02:21;5.03;;;4.53;;
17175;SDS011;8703;48.996;9.594;2022-07-23T05:04:49;5.20;;;4.70;;
17175;SDS011;8703;48.996;9.594;2022-07-23T05:07:17;5.30;;;4.80;;
17175;SDS011;8703;48.996;9.594;2022-07-23T05:09:45;5.60;;;5.07;;
17175;SDS011;8703;48.996;9.594;2022-07-23T05:12:13;5.18;;;4.40;;
17175;SDS011;8703;48.996;9.594;2022-07-23T05:14:40;5.30;;;4.80;;
17175;SDS011;8703;48.996;9.594;2022-07-23T05:17:07;4.93;;;4.47;;
17175;SDS011;8703;48.996;9.594;2022-07-23T05:19:35;5.07;;;4.57;;
17175;SDS011;8703;48.996;9.594;2022-07-23T05:22:02;5.10;;;4.55;;
17175;SDS011;8703;48.996;9.594;2022-07-23T05:24:31;5.00;;;4.50;;
17175;SDS011;8703;48.996;9.594;2022-07-23T05:26:58;5.68;;;4.53;;
17175;SDS011;8703;48.996;9.594;2022-07-23T05:29:25;6.20;;;4.82;;
17175;SDS011;8703;48.996;9.594;2022-07-23T05:31:53;6.32;;;4.68;;
17175;SDS011;8703;48.996;9.594;2022-07-23T05:34:20;6.93;;;5.50;;
17175;SDS011;8703;48.996;9.594;2022-07-23T05:36:47;7.10;;;6.40;;
17175;SDS011;8703;48.996;9.594;2022-07-23T05:39:15;8.57;;;7.18;;
17175;SDS011;8703;48.996;9.594;2022-07-23T05:41:44;7.55;;;6.78;;
17175;SDS011;8703;48.996;9.594;2022-07-23T05:44:11;6.93;;;6.20;;
17175;SDS011;8703;48.996;9.594;2022-07-23T05:46:38;6.80;;;5.22;;
17175;SDS011;8703;48.996;9.594;2022-07-23T05:49:06;5.50;;;5.00;;
17175;SDS011;8703;48.996;9.594;2022-07-23T05:51:33;5.80;;;5.25;;
17175;SDS011;8703;48.996;9.594;2022-07-23T05:54:00;5.85;;;5.25;;
17175;SDS011;8703;48.996;9.594;2022-07-23T05:56:28;6.38;;;4.97;;
17175;SDS011;8703;48.996;9.594;2022-07-23T05:58:56;5.85;;;5.35;;
17175;SDS011;8703;48.996;9.594;2022-07-23T06:01:24;7.20;;;6.60;;
17175;SDS011;8703;48.996;9.594;2022-07-23T06:03:51;6.05;;;5.20;;
17175;SDS011;8703;48.996;9.594;2022-07-23T06:06:19;6.68;;;5.47;;
17175;SDS011;8703;48.996;9.594;2022-07-23T06:08:46;7.43;;;6.43;;
17175;SDS011;8703;48.996;9.594;2022-07-23T06:11:13;6.13;;;5.53;;
17175;SDS011;8703;48.996;9.594;2022-07-23T06:13:41;6.90;;;5.28;;
17175;SDS011;8703;48.996;9.594;2022-07-23T06:16:10;5.50;;;4.97;;
17175;SDS011;8703;48.996;9.594;2022-07-23T06:18:37;5.50;;;5.00;;
17175;SDS011;8703;48.996;9.594;2022-07-23T06:21:04;5.05;;;4.28;;
17175;SDS011;8703;48.996;9.594;2022-07-23T06:23:32;5.20;;;4.70;;
17175;SDS011;8703;48.996;9.594;2022-07-23T06:25:59;5.22;;;4.72;;
17175;SDS011;8703;48.996;9.594;2022-07-23T06:28:26;6.00;;;4.97;;
17175;SDS011;8703;48.996;9.594;2022-07-23T06:30:54;5.78;;;5.03;;
17175;SDS011;8703;48.996;9.594;2022-07-23T06:33:22;5.43;;;4.90;;
17175;SDS011;8703;48.996;9.594;2022-07-23T06:35:50;6.25;;;5.28;;
17175;SDS011;8703;48.996;9.594;2022-07-23T06:38:17;5.50;;;5.00;;
17175;SDS011;8703;48.996;9.594;2022-07-23T06:40:44;5.10;;;4.60;;
17175;SDS011;8703;48.996;9.594;2022-07-23T06:43:12;7.93;;;4.97;;
17175;SDS011;8703;48.996;9.594;2022-07-23T06:45:39;5.57;;;5.07;;
17175;SDS011;8703;48.996;9.594;2022-07-23T06:48:06;5.78;;;5.22;;
17175;SDS011;8703;48.996;9.594;2022-07-23T06:50:35;5.88;;;5.20;;
17175;SDS011;8703;48.996;9.594;2022-07-23T06:53:03;6.72;;;5.35;;
17175;SDS011;8703;48.996;9.594;2022-07-23T06:55:30;6.53;;;5.78;;
17175;SDS011;8703;48.996;9.594;2022-07-23T06:58:00;5.43;;;4.80;;
17175;SDS011;8703;48.996;9.594;2022-07-23T07:00:27;6.38;;;5.78;;
17175;SDS011;8703;48.996;9.594;2022-07-23T07:02:56;7.15;;;6.07;;
17175;SDS011;8703;48.996;9.594;2022-07-23T07:05:23;6.07;;;5.47;;
17175;SDS011;8703;48.996;9.594;2022-07-23T07:07:53;5.97;;;5.38;;
17175;SDS011;8703;48.996;9.594;2022-07-23T07:10:21;7.65;;;5.47;;
17175;SDS011;8703;48.996;9.594;2022-07-23T07:12:48;7.45;;;5.38;;
17175;SDS011;8703;48.996;9.594;2022-07-23T07:15:15;6.53;;;5.82;;
17175;SDS011;8703;48.996;9.594;2022-07-23T07:17:43;6.18;;;5.57;;
17175;SDS011;8703;48.996;9.594;2022-07-23T07:20:10;6.82;;;5.72;;
17175;SDS011;8703;48.996;9.594;2022-07-23T07:22:38;6.47;;;5.72;;
17175;SDS011;8703;48.996;9.594;2022-07-23T07:25:07;6.20;;;5.60;;
17175;SDS011;8703;48.996;9.594;2022-07-23T07:27:35;6.68;;;5.95;;
17175;SDS011;8703;48.996;9.594;2022-07-23T07:30:02;6.80;;;6.20;;
17175;SDS011;8703;48.996;9.594;2022-07-23T07:32:30;7.30;;;6.10;;
17175;SDS011;8703;48.996;9.594;2022-07-23T07:34:58;6.78;;;6.10;;
17175;SDS011;8703;48.996;9.594;2022-07-23T07:37:25;7.40;;;5.97;;
17175;SDS011;8703;48.996;9.594;2022-07-23T07:39:53;6.45;;;5.85;;
17175;SDS011;8703;48.996;9.594;2022-07-23T07:42:21;6.80;;;6.20;;
17175;SDS011;8703;48.996;9.594;2022-07-23T07:44:49;8.60;;;6.18;;
17175;SDS011;8703;48.996;9.594;2022-07-23T07:47:16;6.32;;;5.68;;
17175;SDS011;8703;48.996;9.594;2022-07-23T07:49:44;6.65;;;5.85;;
17175;SDS011;8703;48.996;9.594;2022-07-23T07:52:11;6.30;;;5.70;;
17175;SDS011;8703;48.996;9.594;2022-07-23T07:54:38;6.43;;;5.68;;
17175;SDS011;8703;48.996;9.594;2022-07-23T07:57:06;6.20;;;5.60;;
17175;SDS011;8703;48.996;9.594;2022-07-23T07:59:34;5.85;;;5.13;;
17175;SDS011;8703;48.996;9.594;2022-07-23T08:02:02;6.65;;;5.30;;
17175;SDS011;8703;48.996;9.594;2022-07-23T08:04:29;5.63;;;5.13;;
17175;SDS011;8703;48.996;9.594;2022-07-23T08:06:57;6.43;;;5.32;;
17175;SDS011;8703;48.996;9.594;2022-07-23T08:09:24;5.88;;;5.28;;
17175;SDS011;8703;48.996;9.594;2022-07-23T08:11:51;5.78;;;4.97;;
17175;SDS011;8703;48.996;9.594;2022-07-23T08:14:19;5.22;;;4.75;;
17175;SDS011;8703;48.996;9.594;2022-07-23T08:16:47;5.53;;;4.93;;
17175;SDS011;8703;48.996;9.594;2022-07-23T08:19:15;5.40;;;4.40;;
17175;SDS011;8703;48.996;9.594;2022-07-23T08:21:42;5.00;;;4.60;;
17175;SDS011;8703;48.996;9.594;2022-07-23T08:24:09;4.97;;;4.55;;
17175;SDS011;8703;48.996;9.594;2022-07-23T08:26:37;5.97;;;5.00;;
17175;SDS011;8703;48.996;9.594;2022-07-23T08:29:04;5.03;;;4.53;;
17175;SDS011;8703;48.996;9.594;2022-07-23T08:31:31;5.18;;;4.68;;
17175;SDS011;8703;48.996;9.594;2022-07-23T08:34:00;5.00;;;4.60;;
17175;SDS011;8703;48.996;9.594;2022-07-23T08:36:28;5.40;;;4.90;;
17175;SDS011;8703;48.996;9.594;2022-07-23T08:38:57;4.82;;;4.43;;
17175;SDS011;8703;48.996;9.594;2022-07-23T08:41:27;5.10;;;4.63;;
17175;SDS011;8703;48.996;9.594;2022-07-23T08:43:54;4.90;;;4.47;;
17175;SDS011;8703;48.996;9.594;2022-07-23T08:46:22;5.63;;;4.88;;
17175;SDS011;8703;48.996;9.594;2022-07-23T08:48:50;5.40;;;4.90;;
17175;SDS011;8703;48.996;9.594;2022-07-23T08:51:20;5.30;;;4.80;;
17175;SDS011;8703;48.996;9.594;2022-07-23T08:53:48;8.02;;;5.25;;
17175;SDS011;8703;48.996;9.594;2022-07-23T08:56:15;5.50;;;5.03;;
17175;SDS011;8703;48.996;9.594;2022-07-23T08:58:42;5.43;;;4.93;;
17175;SDS011;8703;48.996;9.594;2022-07-23T09:01:10;5.55;;;5.05;;
17175;SDS011;8703;48.996;9.594;2022-07-23T09:03:37;5.80;;;5.18;;
17175;SDS011;8703;48.996;9.594;2022-07-23T09:06:05;6.25;;;5.65;;
17175;SDS011;8703;48.996;9.594;2022-07-23T09:08:37;5.68;;;5.00;;
17175;SDS011;8703;48.996;9.594;2022-07-23T09:11:06;6.13;;;5.53;;
17175;SDS011;8703;48.996;9.594;2022-07-23T09:13:35;5.82;;;5.32;;
17175;SDS011;8703;48.996;9.594;2022-07-23T09:16:05;5.85;;;5.18;;
17175;SDS011;8703;48.996;9.594;2022-07-23T09:18:36;7.53;;;5.80;;
17175;SDS011;8703;48.996;9.594;2022-07-23T09:21:12;5.97;;;5.20;;
17175;SDS011;8703;48.996;9.594;2022-07-23T09:23:54;6.00;;;4.68;;
17175;SDS011;8703;48.996;9.594;2022-07-23T09:26:24;5.03;;;4.53;;
17175;SDS011;8703;48.996;9.594;2022-07-23T09:28:58;5.82;;;5.25;;
17175;SDS011;8703;48.996;9.594;2022-07-23T09:31:32;5.50;;;4.97;;
17175;SDS011;8703;48.996;9.594;2022-07-23T09:34:11;5.53;;;4.55;;
17175;SDS011;8703;48.996;9.594;2022-07-23T09:36:40;4.97;;;4.47;;
17175;SDS011;8703;48.996;9.594;2022-07-23T09:39:10;5.55;;;4.95;;
17175;SDS011;8703;48.996;9.594;2022-07-23T09:41:39;5.55;;;5.03;;
17175;SDS011;8703;48.996;9.594;2022-07-23T09:44:09;5.75;;;5.20;;
17175;SDS011;8703;48.996;9.594;2022-07-23T09:46:38;5.10;;;4.60;;
17175;SDS011;8703;48.996;9.594;2022-07-23T09:49:11;4.80;;;4.40;;
17175;SDS011;8703;48.996;9.594;2022-07-23T09:51:44;4.90;;;4.50;;
17175;SDS011;8703;48.996;9.594;2022-07-23T09:54:25;6.97;;;5.13;;
17175;SDS011;8703;48.996;9.594;2022-07-23T09:56:58;4.50;;;4.10;;
17175;SDS011;8703;48.996;9.594;2022-07-23T09:59:30;4.57;;;4.18;;
17175;SDS011;8703;48.996;9.594;2022-07-23T10:01:58;4.85;;;4.13;;
17175;SDS011;8703;48.996;9.594;2022-07-23T10:04:27;4.63;;;4.15;;
17175;SDS011;8703;48.996;9.594;2022-07-23T10:06:55;4.65;;;4.18;;
17175;SDS011;8703;48.996;9.594;2022-07-23T10:09:26;4.88;;;4.47;;
17175;SDS011;8703;48.996;9.594;2022-07-23T10:11:55;4.30;;;3.90;;
17175;SDS011;8703;48.996;9.594;2022-07-23T10:14:28;4.88;;;4.38;;
17175;SDS011;8703;48.996;9.594;2022-07-23T10:16:57;4.55;;;4.15;;
17175;SDS011;8703;48.996;9.594;2022-07-23T10:19:25;4.63;;;4.20;;
17175;SDS011;8703;48.996;9.594;2022-07-23T10:21:53;4.93;;;4.53;;
17175;SDS011;8703;48.996;9.594;2022-07-23T10:24:27;5.32;;;4.50;;
17175;SDS011;8703;48.996;9.594;2022-07-23T10:27:38;4.93;;;4.53;;
17175;SDS011;8703;48.996;9.594;2022-07-23T10:30:20;4.35;;;3.95;;
17175;SDS011;8703;48.996;9.594;2022-07-23T10:32:53;4.35;;;3.95;;
17175;SDS011;8703;48.996;9.594;2022-07-23T10:35:29;4.70;;;4.22;;
17175;SDS011;8703;48.996;9.594;2022-07-23T10:38:01;5.20;;;4.78;;
17175;SDS011;8703;48.996;9.594;2022-07-23T10:40:35;5.78;;;4.40;;
17175;SDS011;8703;48.996;9.594;2022-07-23T10:43:02;4.40;;;3.88;;
17175;SDS011;8703;48.996;9.594;2022-07-23T10:45:41;4.72;;;4.32;;
17175;SDS011;8703;48.996;9.594;2022-07-23T10:48:12;4.38;;;3.97;;
17175;SDS011;8703;48.996;9.594;2022-07-23T10:50:41;4.30;;;3.88;;
17175;SDS011;8703;48.996;9.594;2022-07-23T10:53:10;4.22;;;3.67;;
17175;SDS011;8703;48.996;9.594;2022-07-23T10:55:41;4.57;;;4.18;;
17175;SDS011;8703;48.996;9.594;2022-07-23T10:58:17;4.20;;;3.80;;
17175;SDS011;8703;48.996;9.594;2022-07-23T11:00:49;4.45;;;4.05;;
17175;SDS011;8703;48.996;9.594;2022-07-23T11:03:30;5.75;;;4.50;;
17175;SDS011;8703;48.996;9.594;2022-07-23T11:06:00;4.32;;;3.80;;
17175;SDS011;8703;48.996;9.594;2022-07-23T11:08:28;4.82;;;4.43;;
17175;SDS011;8703;48.996;9.594;2022-07-23T11:11:07;4.60;;;4.13;;
17175;SDS011;8703;48.996;9.594;2022-07-23T11:13:37;4.60;;;4.20;;
17175;SDS011;8703;48.996;9.594;2022-07-23T11:16:13;4.50;;;4.10;;
17175;SDS011;8703;48.996;9.594;2022-07-23T11:18:55;4.80;;;4.40;;
17175;SDS011;8703;48.996;9.594;2022-07-23T11:21:41;5.03;;;4.53;;
17175;SDS011;8703;48.996;9.594;2022-07-23T11:24:11;5.03;;;4.63;;
17175;SDS011;8703;48.996;9.594;2022-07-23T11:26:48;4.97;;;4.57;;
17175;SDS011;8703;48.996;9.594;2022-07-23T11:35:24;5.00;;;4.55;;
17175;SDS011;8703;48.996;9.594;2022-07-23T11:37:52;4.93;;;4.50;;
17175;SDS011;8703;48.996;9.594;2022-07-23T11:40:23;4.95;;;4.53;;
17175;SDS011;8703;48.996;9.594;2022-07-23T11:42:54;4.90;;;4.50;;
17175;SDS011;8703;48.996;9.594;2022-07-23T11:45:24;4.88;;;4.32;;
17175;SDS011;8703;48.996;9.594;2022-07-23T11:47:52;4.93;;;4.43;;
17175;SDS011;8703;48.996;9.594;2022-07-23T11:50:22;4.65;;;4.25;;
17175;SDS011;8703;48.996;9.594;2022-07-23T11:52:50;10.43;;;6.47;;
17175;SDS011;8703;48.996;9.594;2022-07-23T11:55:18;5.38;;;4.60;;
17175;SDS011;8703;48.996;9.594;2022-07-23T11:57:46;7.63;;;5.00;;
17175;SDS011;8703;48.996;9.594;2022-07-23T12:00:16;4.97;;;4.47;;
17175;SDS011;8703;48.996;9.594;2022-07-23T12:02:44;4.50;;;4.10;;
17175;SDS011;8703;48.996;9.594;2022-07-23T12:05:13;4.18;;;3.88;;
17175;SDS011;8703;48.996;9.594;2022-07-23T12:07:41;10.80;;;6.13;;
17175;SDS011;8703;48.996;9.594;2022-07-23T12:10:10;4.53;;;4.15;;
17175;SDS011;8703;48.996;9.594;2022-07-23T12:12:40;4.38;;;3.97;;
17175;SDS011;8703;48.996;9.594;2022-07-23T12:15:08;4.40;;;4.00;;
17175;SDS011;8703;48.996;9.594;2022-07-23T12:17:39;3.88;;;3.58;;
17175;SDS011;8703;48.996;9.594;2022-07-23T12:20:08;7.00;;;3.70;;
17175;SDS011;8703;48.996;9.594;2022-07-23T12:22:39;4.50;;;4.10;;
17175;SDS011;8703;48.996;9.594;2022-07-23T12:25:08;5.10;;;4.63;;
17175;SDS011;8703;48.996;9.594;2022-07-23T12:27:37;4.47;;;4.00;;
17175;SDS011;8703;48.996;9.594;2022-07-23T12:30:21;4.85;;;3.90;;
17175;SDS011;8703;48.996;9.594;2022-07-23T12:32:52;4.68;;;4.28;;
17175;SDS011;8703;48.996;9.594;2022-07-23T12:35:22;4.70;;;4.30;;
17175;SDS011;8703;48.996;9.594;2022-07-23T12:37:59;4.47;;;4.07;;
17175;SDS011;8703;48.996;9.594;2022-07-23T12:40:28;4.80;;;4.32;;
17175;SDS011;8703;48.996;9.594;2022-07-23T12:42:57;4.68;;;4.28;;
17175;SDS011;8703;48.996;9.594;2022-07-23T12:45:25;4.22;;;3.92;;
17175;SDS011;8703;48.996;9.594;2022-07-23T12:48:03;5.10;;;4.57;;
17175;SDS011;8703;48.996;9.594;2022-07-23T12:53:18;4.95;;;4.50;;
17175;SDS011;8703;48.996;9.594;2022-07-23T12:55:48;4.80;;;4.40;;
17175;SDS011;8703;48.996;9.594;2022-07-23T12:58:17;5.53;;;4.30;;
17175;SDS011;8703;48.996;9.594;2022-07-23T13:00:49;5.55;;;4.25;;
17175;SDS011;8703;48.996;9.594;2022-07-23T13:03:22;4.80;;;4.40;;
17175;SDS011;8703;48.996;9.594;2022-07-23T13:05:51;5.32;;;4.78;;
17175;SDS011;8703;48.996;9.594;2022-07-23T13:08:18;5.20;;;4.50;;
17175;SDS011;8703;48.996;9.594;2022-07-23T13:10:46;5.40;;;4.90;;
17175;SDS011;8703;48.996;9.594;2022-07-23T13:13:16;5.18;;;4.78;;
17175;SDS011;8703;48.996;9.594;2022-07-23T13:15:45;5.90;;;5.30;;
17175;SDS011;8703;48.996;9.594;2022-07-23T13:18:12;5.35;;;4.95;;
17175;SDS011;8703;48.996;9.594;2022-07-23T13:20:41;5.07;;;4.60;;
17175;SDS011;8703;48.996;9.594;2022-07-23T13:23:08;5.60;;;5.10;;
17175;SDS011;8703;48.996;9.594;2022-07-23T13:25:36;6.05;;;5.55;;
17175;SDS011;8703;48.996;9.594;2022-07-23T13:28:03;5.78;;;5.25;;
17175;SDS011;8703;48.996;9.594;2022-07-23T13:30:31;6.47;;;5.03;;
17175;SDS011;8703;48.996;9.594;2022-07-23T13:32:58;5.45;;;4.95;;
17175;SDS011;8703;48.996;9.594;2022-07-23T13:35:26;5.55;;;5.05;;
17175;SDS011;8703;48.996;9.594;2022-07-23T13:37:55;5.72;;;5.22;;
17175;SDS011;8703;48.996;9.594;2022-07-23T13:40:22;5.78;;;5.38;;
17175;SDS011;8703;48.996;9.594;2022-07-23T13:42:50;5.78;;;5.28;;
17175;SDS011;8703;48.996;9.594;2022-07-23T13:45:17;6.03;;;5.50;;
17175;SDS011;8703;48.996;9.594;2022-07-23T13:47:44;5.82;;;5.32;;
17175;SDS011;8703;48.996;9.594;2022-07-23T13:50:12;5.68;;;5.18;;
17175;SDS011;8703;48.996;9.594;2022-07-23T13:52:41;5.53;;;5.03;;
17175;SDS011;8703;48.996;9.594;2022-07-23T13:55:09;5.68;;;5.20;;
17175;SDS011;8703;48.996;9.594;2022-07-23T13:57:37;5.60;;;5.10;;
17175;SDS011;8703;48.996;9.594;2022-07-23T14:00:05;5.68;;;5.03;;
17175;SDS011;8703;48.996;9.594;2022-07-23T14:02:35;5.45;;;4.95;;
17175;SDS011;8703;48.996;9.594;2022-07-23T14:05:03;5.72;;;5.03;;
17175;SDS011;8703;48.996;9.594;2022-07-23T14:07:31;5.32;;;4.82;;
17175;SDS011;8703;48.996;9.594;2022-07-23T14:09:59;5.85;;;4.88;;
17175;SDS011;8703;48.996;9.594;2022-07-23T14:12:27;5.45;;;4.95;;
17175;SDS011;8703;48.996;9.594;2022-07-23T14:14:55;4.95;;;4.55;;
17175;SDS011;8703;48.996;9.594;2022-07-23T14:17:22;5.25;;;4.75;;
17175;SDS011;8703;48.996;9.594;2022-07-23T14:19:50;6.53;;;5.22;;
17175;SDS011;8703;48.996;9.594;2022-07-23T14:22:17;5.65;;;4.60;;
17175;SDS011;8703;48.996;9.594;2022-07-23T14:24:44;5.28;;;4.78;;
17175;SDS011;8703;48.996;9.594;2022-07-23T14:27:12;5.70;;;5.20;;
17175;SDS011;8703;48.996;9.594;2022-07-23T14:29:40;5.63;;;5.13;;
17175;SDS011;8703;48.996;9.594;2022-07-23T14:32:08;5.25;;;4.85;;
17175;SDS011;8703;48.996;9.594;2022-07-23T14:34:35;5.47;;;5.07;;
17175;SDS011;8703;48.996;9.594;2022-07-23T14:37:02;5.10;;;4.65;;
17175;SDS011;8703;48.996;9.594;2022-07-23T14:39:30;5.25;;;4.63;;
17175;SDS011;8703;48.996;9.594;2022-07-23T14:41:57;4.95;;;4.55;;
17175;SDS011;8703;48.996;9.594;2022-07-23T14:44:24;5.13;;;4.63;;
17175;SDS011;8703;48.996;9.594;2022-07-23T14:46:53;6.05;;;5.07;;
17175;SDS011;8703;48.996;9.594;2022-07-23T14:49:21;5.63;;;4.90;;
17175;SDS011;8703;48.996;9.594;2022-07-23T14:51:48;5.18;;;4.78;;
17175;SDS011;8703;48.996;9.594;2022-07-23T14:54:15;5.60;;;5.10;;
17175;SDS011;8703;48.996;9.594;2022-07-23T14:56:43;5.13;;;4.72;;
17175;SDS011;8703;48.996;9.594;2022-07-23T14:59:10;5.63;;;5.15;;
17175;SDS011;8703;48.996;9.594;2022-07-23T15:01:38;5.78;;;5.05;;
17175;SDS011;8703;48.996;9.594;2022-07-23T15:04:06;5.82;;;5.22;;
17175;SDS011;8703;48.996;9.594;2022-07-23T15:06:34;5.50;;;5.00;;
17175;SDS011;8703;48.996;9.594;2022-07-23T15:09:03;5.90;;;5.40;;
17175;SDS011;8703;48.996;9.594;2022-07-23T15:11:30;5.68;;;5.15;;
17175;SDS011;8703;48.996;9.594;2022-07-23T15:13:59;6.82;;;5.10;;
17175;SDS011;8703;48.996;9.594;2022-07-23T15:16:26;5.03;;;4.63;;
17175;SDS011;8703;48.996;9.594;2022-07-23T15:18:54;5.30;;;4.90;;
17175;SDS011;8703;48.996;9.594;2022-07-23T15:21:23;5.68;;;5.18;;